sensor_id;sensor_type;location;lat;lon;timestamp;pressure;altitude;pressure_sealevel;temperature;humidity
12624;BME280;6377;42.836;23.998;2024-01-07T00:02:07;94152.63;;;13.07;73.62
12624;BME280;6377;42.836;23.998;2024-01-07T00:04:35;94122.44;;;13.08;72.09
12624;BME280;6377;42.836;23.998;2024-01-07T00:07:04;94008.34;;;12.38;69.91
12624;BME280;6377;42.836;23.998;2024-01-07T00:09:31;94011.78;;;12.39;69.68
12624;BME280;6377;42.836;23.998;2024-01-07T00:11:58;94146.88;;;13.10;72.12
12624;BME280;6377;42.836;23.998;2024-01-07T00:14:25;94143.06;;;13.06;73.21
12624;BME280;6377;42.836;23.998;2024-01-07T00:16:53;94135.34;;;13.16;71.98
12624;BME280;6377;42.836;23.998;2024-01-07T00:19:20;94126.91;;;13.07;73.33
12624;BME280;6377;42.836;23.998;2024-01-07T00:21:47;94140.16;;;13.07;74.44
12624;BME280;6377;42.836;23.998;2024-01-07T00:24:17;94135.47;;;13.09;74.42
12624;BME280;6377;42.836;23.998;2024-01-07T00:26:44;94139.13;;;12.97;74.27
12624;BME280;6377;42.836;23.998;2024-01-07T00:29:11;94126.69;;;12.97;74.20
12624;BME280;6377;42.836;23.998;2024-01-07T00:31:38;94043.59;;;12.39;74.28
12624;BME280;6377;42.836;23.998;2024-01-07T00:34:05;94138.22;;;13.03;74.18
12624;BME280;6377;42.836;23.998;2024-01-07T00:36:32;94118.03;;;12.90;76.95
12624;BME280;6377;42.836;23.998;2024-01-07T00:39:00;94116.75;;;12.92;74.99
12624;BME280;6377;42.836;23.998;2024-01-07T00:41:28;94117.22;;;13.01;75.42
12624;BME280;6377;42.836;23.998;2024-01-07T00:43:56;94130.81;;;12.93;76.39
12624;BME280;6377;42.836;23.998;2024-01-07T00:46:23;94109.13;;;12.84;75.92
12624;BME280;6377;42.836;23.998;2024-01-07T00:48:50;94141.78;;;12.97;76.31
12624;BME280;6377;42.836;23.998;2024-01-07T00:51:17;94129.09;;;12.99;76.46
12624;BME280;6377;42.836;23.998;2024-01-07T00:53:44;94117.91;;;12.73;81.49
12624;BME280;6377;42.836;23.998;2024-01-07T00:56:12;94113.16;;;12.64;84.22
12624;BME280;6377;42.836;23.998;2024-01-07T00:58:40;94122.59;;;12.60;85.00
12624;BME280;6377;42.836;23.998;2024-01-07T01:01:07;94096.31;;;12.70;83.72
12624;BME280;6377;42.836;23.998;2024-01-07T01:03:35;94087.19;;;12.66;82.02
12624;BME280;6377;42.836;23.998;2024-01-07T01:06:02;94073.59;;;12.62;83.74
12624;BME280;6377;42.836;23.998;2024-01-07T01:08:29;94064.25;;;12.60;83.53
12624;BME280;6377;42.836;23.998;2024-01-07T01:10:56;93951.47;;;11.88;83.52
12624;BME280;6377;42.836;23.998;2024-01-07T01:13:23;94050.41;;;12.69;83.02
12624;BME280;6377;42.836;23.998;2024-01-07T01:15:52;94015.84;;;12.53;80.83
12624;BME280;6377;42.836;23.998;2024-01-07T01:18:21;94030.22;;;12.57;80.85
12624;BME280;6377;42.836;23.998;2024-01-07T01:20:48;93940.31;;;11.97;78.21
12624;BME280;6377;42.836;23.998;2024-01-07T01:23:15;93988.50;;;12.41;78.98
12624;BME280;6377;42.836;23.998;2024-01-07T01:25:42;94033.34;;;12.65;79.04
12624;BME280;6377;42.836;23.998;2024-01-07T01:28:09;94013.84;;;12.60;79.65
12624;BME280;6377;42.836;23.998;2024-01-07T01:30:37;94013.75;;;12.66;78.83
12624;BME280;6377;42.836;23.998;2024-01-07T01:33:05;93919.78;;;11.93;78.75
12624;BME280;6377;42.836;23.998;2024-01-07T01:35:32;94019.97;;;12.60;77.77
12624;BME280;6377;42.836;23.998;2024-01-07T01:38:00;93976.38;;;12.45;78.17
12624;BME280;6377;42.836;23.998;2024-01-07T01:40:27;93948.16;;;12.27;78.41
12624;BME280;6377;42.836;23.998;2024-01-07T01:42:54;93992.63;;;12.60;79.35
12624;BME280;6377;42.836;23.998;2024-01-07T01:45:21;93989.06;;;12.66;77.81
12624;BME280;6377;42.836;23.998;2024-01-07T01:47:49;93981.91;;;12.66;78.30
12624;BME280;6377;42.836;23.998;2024-01-07T01:50:18;93957.25;;;12.43;79.51
12624;BME280;6377;42.836;23.998;2024-01-07T01:52:45;93977.44;;;12.67;77.87
12624;BME280;6377;42.836;23.998;2024-01-07T01:55:13;93962.19;;;12.62;79.65
12624;BME280;6377;42.836;23.998;2024-01-07T01:57:40;93957.25;;;12.66;79.09
12624;BME280;6377;42.836;23.998;2024-01-07T02:00:08;93915.41;;;12.45;76.18
12624;BME280;6377;42.836;23.998;2024-01-07T02:02:35;93953.91;;;12.70;75.64
12624;BME280;6377;42.836;23.998;2024-01-07T02:05:03;93949.88;;;12.56;79.07
12624;BME280;6377;42.836;23.998;2024-01-07T02:07:32;93864.84;;;12.11;78.44
12624;BME280;6377;42.836;23.998;2024-01-07T02:10:00;93942.13;;;12.66;75.17
12624;BME280;6377;42.836;23.998;2024-01-07T02:12:27;93944.13;;;12.59;77.64
12624;BME280;6377;42.836;23.998;2024-01-07T02:14:55;93941.69;;;12.46;79.33
12624;BME280;6377;42.836;23.998;2024-01-07T02:17:22;93946.31;;;12.39;80.74
12624;BME280;6377;42.836;23.998;2024-01-07T02:19:49;93927.28;;;12.42;81.01
12624;BME280;6377;42.836;23.998;2024-01-07T02:22:16;93905.41;;;12.23;82.26
12624;BME280;6377;42.836;23.998;2024-01-07T02:24:46;93902.75;;;12.23;83.47
12624;BME280;6377;42.836;23.998;2024-01-07T02:27:13;93895.84;;;12.22;84.46
12624;BME280;6377;42.836;23.998;2024-01-07T02:29:40;93890.53;;;12.34;80.77
12624;BME280;6377;42.836;23.998;2024-01-07T02:32:07;93884.28;;;12.40;81.75
12624;BME280;6377;42.836;23.998;2024-01-07T02:34:35;93882.69;;;12.27;83.02
12624;BME280;6377;42.836;23.998;2024-01-07T02:37:02;93883.03;;;12.31;82.45
12624;BME280;6377;42.836;23.998;2024-01-07T02:39:29;93871.50;;;12.37;82.48
12624;BME280;6377;42.836;23.998;2024-01-07T02:41:58;93865.19;;;12.38;82.06
12624;BME280;6377;42.836;23.998;2024-01-07T02:44:25;93864.97;;;12.16;83.44
12624;BME280;6377;42.836;23.998;2024-01-07T02:46:52;93865.53;;;12.07;84.64
12624;BME280;6377;42.836;23.998;2024-01-07T02:49:20;93854.94;;;11.95;85.96
12624;BME280;6377;42.836;23.998;2024-01-07T02:51:47;93857.13;;;11.98;86.22
12624;BME280;6377;42.836;23.998;2024-01-07T02:54:15;93856.81;;;11.95;87.10
12624;BME280;6377;42.836;23.998;2024-01-07T02:56:43;93869.09;;;11.89;86.53
12624;BME280;6377;42.836;23.998;2024-01-07T02:59:11;93866.81;;;12.04;85.21
12624;BME280;6377;42.836;23.998;2024-01-07T03:01:38;93864.06;;;11.99;86.25
12624;BME280;6377;42.836;23.998;2024-01-07T03:04:09;93841.22;;;11.98;84.78
12624;BME280;6377;42.836;23.998;2024-01-07T03:06:36;93865.06;;;12.10;85.29
12624;BME280;6377;42.836;23.998;2024-01-07T03:09:04;93865.31;;;12.08;85.78
12624;BME280;6377;42.836;23.998;2024-01-07T03:11:31;93866.81;;;12.04;85.72
12624;BME280;6377;42.836;23.998;2024-01-07T03:13:58;93855.84;;;12.01;86.87
12624;BME280;6377;42.836;23.998;2024-01-07T03:16:27;93851.84;;;11.87;87.86
12624;BME280;6377;42.836;23.998;2024-01-07T03:18:54;93854.53;;;11.68;89.58
12624;BME280;6377;42.836;23.998;2024-01-07T03:21:22;93848.47;;;11.56;91.81
12624;BME280;6377;42.836;23.998;2024-01-07T03:23:50;93841.75;;;11.54;91.71
12624;BME280;6377;42.836;23.998;2024-01-07T03:26:19;93818.03;;;11.36;92.38
12624;BME280;6377;42.836;23.998;2024-01-07T03:28:46;93790.47;;;11.02;95.07
12624;BME280;6377;42.836;23.998;2024-01-07T03:31:14;93771.28;;;11.06;94.48
12624;BME280;6377;42.836;23.998;2024-01-07T03:33:43;93791.56;;;11.24;94.74
12624;BME280;6377;42.836;23.998;2024-01-07T03:36:12;93831.06;;;11.49;94.58
12624;BME280;6377;42.836;23.998;2024-01-07T03:38:40;93836.47;;;11.54;93.75
12624;BME280;6377;42.836;23.998;2024-01-07T03:41:08;93832.78;;;11.55;93.85
12624;BME280;6377;42.836;23.998;2024-01-07T03:43:35;93835.34;;;11.61;92.54
12624;BME280;6377;42.836;23.998;2024-01-07T03:46:02;93825.28;;;11.40;95.43
12624;BME280;6377;42.836;23.998;2024-01-07T03:48:29;93813.50;;;11.24;97.34
12624;BME280;6377;42.836;23.998;2024-01-07T03:50:58;93789.09;;;10.99;100.00
12624;BME280;6377;42.836;23.998;2024-01-07T03:53:25;93797.09;;;10.93;100.00
12624;BME280;6377;42.836;23.998;2024-01-07T03:55:52;93811.28;;;11.10;100.00
12624;BME280;6377;42.836;23.998;2024-01-07T03:58:20;93810.53;;;11.21;100.00
12624;BME280;6377;42.836;23.998;2024-01-07T04:00:47;93804.09;;;11.29;100.00
12624;BME280;6377;42.836;23.998;2024-01-07T04:03:14;93814.94;;;11.39;100.00
12624;BME280;6377;42.836;23.998;2024-01-07T04:05:41;93811.13;;;11.46;100.00
12624;BME280;6377;42.836;23.998;2024-01-07T04:08:12;93815.16;;;11.37;100.00
12624;BME280;6377;42.836;23.998;2024-01-07T04:10:41;93806.28;;;11.32;100.00
12624;BME280;6377;42.836;23.998;2024-01-07T04:13:09;93807.66;;;11.34;100.00
12624;BME280;6377;42.836;23.998;2024-01-07T04:15:36;93813.41;;;11.19;100.00
12624;BME280;6377;42.836;23.998;2024-01-07T04:18:04;93806.38;;;11.13;100.00
12624;BME280;6377;42.836;23.998;2024-01-07T04:20:31;93813.50;;;11.13;100.00
12624;BME280;6377;42.836;23.998;2024-01-07T04:22:58;93802.34;;;11.11;100.00
12624;BME280;6377;42.836;23.998;2024-01-07T04:25:27;93805.97;;;10.98;100.00
12624;BME280;6377;42.836;23.998;2024-01-07T04:27:54;93796.00;;;11.00;100.00
12624;BME280;6377;42.836;23.998;2024-01-07T04:30:21;93788.91;;;11.12;100.00
12624;BME280;6377;42.836;23.998;2024-01-07T04:32:48;93782.91;;;11.17;100.00
12624;BME280;6377;42.836;23.998;2024-01-07T04:35:15;93784.38;;;11.13;100.00
12624;BME280;6377;42.836;23.998;2024-01-07T04:37:42;93781.88;;;11.18;100.00
12624;BME280;6377;42.836;23.998;2024-01-07T04:40:11;93783.38;;;11.25;100.00
12624;BME280;6377;42.836;23.998;2024-01-07T04:42:39;93784.31;;;11.31;100.00
12624;BME280;6377;42.836;23.998;2024-01-07T04:45:07;93789.97;;;11.46;100.00
12624;BME280;6377;42.836;23.998;2024-01-07T04:47:34;93779.38;;;11.46;100.00
12624;BME280;6377;42.836;23.998;2024-01-07T04:50:02;93775.72;;;11.47;100.00
12624;BME280;6377;42.836;23.998;2024-01-07T04:52:30;93770.88;;;11.44;100.00
12624;BME280;6377;42.836;23.998;2024-01-07T04:54:57;93759.81;;;11.36;100.00
12624;BME280;6377;42.836;23.998;2024-01-07T04:57:24;93764.66;;;11.39;100.00
12624;BME280;6377;42.836;23.998;2024-01-07T04:59:53;93765.69;;;11.38;100.00
12624;BME280;6377;42.836;23.998;2024-01-07T05:02:19;93759.09;;;11.17;100.00
12624;BME280;6377;42.836;23.998;2024-01-07T05:04:46;93756.66;;;11.04;100.00
12624;BME280;6377;42.836;23.998;2024-01-07T05:07:13;93740.16;;;10.79;100.00
12624;BME280;6377;42.836;23.998;2024-01-07T05:09:41;93746.00;;;10.69;100.00
12624;BME280;6377;42.836;23.998;2024-01-07T05:12:08;93728.56;;;10.80;100.00
12624;BME280;6377;42.836;23.998;2024-01-07T05:14:35;93722.38;;;10.86;100.00
12624;BME280;6377;42.836;23.998;2024-01-07T05:17:04;93720.41;;;10.93;100.00
12624;BME280;6377;42.836;23.998;2024-01-07T05:19:31;93725.38;;;11.01;100.00
12624;BME280;6377;42.836;23.998;2024-01-07T05:21:59;93691.56;;;10.80;100.00
12624;BME280;6377;42.836;23.998;2024-01-07T05:24:26;93754.25;;;11.14;100.00
12624;BME280;6377;42.836;23.998;2024-01-07T05:26:53;93743.69;;;11.14;100.00
12624;BME280;6377;42.836;23.998;2024-01-07T05:29:20;93735.25;;;10.94;100.00
12624;BME280;6377;42.836;23.998;2024-01-07T05:31:47;93739.25;;;10.73;100.00
12624;BME280;6377;42.836;23.998;2024-01-07T05:34:16;93725.00;;;10.74;100.00
12624;BME280;6377;42.836;23.998;2024-01-07T05:36:43;93731.44;;;10.78;100.00
12624;BME280;6377;42.836;23.998;2024-01-07T05:39:10;93743.63;;;10.79;100.00
12624;BME280;6377;42.836;23.998;2024-01-07T05:41:37;93750.38;;;10.75;100.00
12624;BME280;6377;42.836;23.998;2024-01-07T05:44:06;93746.59;;;10.71;100.00
12624;BME280;6377;42.836;23.998;2024-01-07T05:46:34;93751.44;;;10.74;100.00
12624;BME280;6377;42.836;23.998;2024-01-07T05:49:01;93756.94;;;10.73;100.00
12624;BME280;6377;42.836;23.998;2024-01-07T05:51:31;93764.50;;;10.39;100.00
12624;BME280;6377;42.836;23.998;2024-01-07T05:53:59;93759.97;;;10.28;100.00
12624;BME280;6377;42.836;23.998;2024-01-07T05:56:26;93720.59;;;9.90;100.00
12624;BME280;6377;42.836;23.998;2024-01-07T05:58:53;93736.78;;;10.12;100.00
12624;BME280;6377;42.836;23.998;2024-01-07T06:01:21;93727.66;;;10.15;100.00
12624;BME280;6377;42.836;23.998;2024-01-07T06:03:48;93779.69;;;10.44;100.00
12624;BME280;6377;42.836;23.998;2024-01-07T06:06:15;93773.56;;;10.32;100.00
12624;BME280;6377;42.836;23.998;2024-01-07T06:08:44;93764.94;;;10.36;100.00
12624;BME280;6377;42.836;23.998;2024-01-07T06:11:11;93763.47;;;10.40;100.00
12624;BME280;6377;42.836;23.998;2024-01-07T06:13:44;93617.03;;;9.40;100.00
12624;BME280;6377;42.836;23.998;2024-01-07T06:16:11;93776.69;;;10.40;100.00
12624;BME280;6377;42.836;23.998;2024-01-07T06:18:38;93670.31;;;9.67;100.00
12624;BME280;6377;42.836;23.998;2024-01-07T06:21:05;93798.91;;;10.51;100.00
12624;BME280;6377;42.836;23.998;2024-01-07T06:23:32;93744.78;;;10.05;100.00
12624;BME280;6377;42.836;23.998;2024-01-07T06:26:03;93805.88;;;10.45;100.00
12624;BME280;6377;42.836;23.998;2024-01-07T06:28:30;93762.59;;;10.10;100.00
12624;BME280;6377;42.836;23.998;2024-01-07T06:30:57;93814.81;;;10.33;100.00
12624;BME280;6377;42.836;23.998;2024-01-07T06:33:24;93785.72;;;9.96;100.00
12624;BME280;6377;42.836;23.998;2024-01-07T06:35:51;93800.91;;;9.83;100.00
12624;BME280;6377;42.836;23.998;2024-01-07T06:38:18;93848.53;;;10.12;100.00
12624;BME280;6377;42.836;23.998;2024-01-07T06:40:46;93801.13;;;9.81;100.00
12624;BME280;6377;42.836;23.998;2024-01-07T06:43:14;93788.00;;;9.93;100.00
12624;BME280;6377;42.836;23.998;2024-01-07T06:45:42;93794.75;;;9.89;100.00
12624;BME280;6377;42.836;23.998;2024-01-07T06:48:09;93842.75;;;10.22;100.00
12624;BME280;6377;42.836;23.998;2024-01-07T06:50:37;93793.28;;;9.93;100.00
12624;BME280;6377;42.836;23.998;2024-01-07T06:53:04;93771.06;;;9.82;100.00
12624;BME280;6377;42.836;23.998;2024-01-07T06:55:31;93782.50;;;9.94;100.00
12624;BME280;6377;42.836;23.998;2024-01-07T06:57:58;93809.09;;;10.18;100.00
12624;BME280;6377;42.836;23.998;2024-01-07T07:00:27;93760.78;;;9.92;100.00
12624;BME280;6377;42.836;23.998;2024-01-07T07:02:54;93750.31;;;9.86;100.00
12624;BME280;6377;42.836;23.998;2024-01-07T07:05:21;93751.91;;;9.87;100.00
12624;BME280;6377;42.836;23.998;2024-01-07T07:07:48;93765.47;;;9.72;100.00
12624;BME280;6377;42.836;23.998;2024-01-07T07:10:16;93771.34;;;9.92;100.00
12624;BME280;6377;42.836;23.998;2024-01-07T07:12:43;93742.22;;;9.81;100.00
12624;BME280;6377;42.836;23.998;2024-01-07T07:15:10;93773.91;;;9.99;100.00
12624;BME280;6377;42.836;23.998;2024-01-07T07:17:39;93768.31;;;10.07;100.00
12624;BME280;6377;42.836;23.998;2024-01-07T07:20:07;93749.88;;;9.89;100.00
12624;BME280;6377;42.836;23.998;2024-01-07T07:22:35;93742.47;;;9.79;100.00
12624;BME280;6377;42.836;23.998;2024-01-07T07:25:02;93740.38;;;9.63;100.00
12624;BME280;6377;42.836;23.998;2024-01-07T07:27:29;93792.81;;;9.78;100.00
12624;BME280;6377;42.836;23.998;2024-01-07T07:29:57;93797.53;;;9.76;100.00
12624;BME280;6377;42.836;23.998;2024-01-07T07:32:24;93801.56;;;9.78;100.00
12624;BME280;6377;42.836;23.998;2024-01-07T07:34:52;93796.28;;;9.78;100.00
12624;BME280;6377;42.836;23.998;2024-01-07T07:37:19;93810.94;;;9.92;100.00
12624;BME280;6377;42.836;23.998;2024-01-07T07:39:46;93808.69;;;9.96;100.00
12624;BME280;6377;42.836;23.998;2024-01-07T07:42:15;93777.59;;;9.98;100.00
12624;BME280;6377;42.836;23.998;2024-01-07T07:44:42;93810.84;;;10.24;100.00
12624;BME280;6377;42.836;23.998;2024-01-07T07:47:09;93806.00;;;10.39;100.00
12624;BME280;6377;42.836;23.998;2024-01-07T07:49:37;93805.84;;;10.63;100.00
12624;BME280;6377;42.836;23.998;2024-01-07T07:52:07;93806.59;;;10.71;100.00
12624;BME280;6377;42.836;23.998;2024-01-07T07:54:36;93791.09;;;10.44;100.00
12624;BME280;6377;42.836;23.998;2024-01-07T07:57:04;93801.03;;;10.60;100.00
12624;BME280;6377;42.836;23.998;2024-01-07T07:59:31;93805.84;;;10.63;100.00
12624;BME280;6377;42.836;23.998;2024-01-07T08:01:58;93801.44;;;10.76;100.00
12624;BME280;6377;42.836;23.998;2024-01-07T08:04:25;93806.88;;;10.92;100.00
12624;BME280;6377;42.836;23.998;2024-01-07T08:06:53;93795.88;;;11.07;100.00
12624;BME280;6377;42.836;23.998;2024-01-07T08:09:23;93800.94;;;10.97;100.00
12624;BME280;6377;42.836;23.998;2024-01-07T08:11:51;93804.84;;;10.94;100.00
12624;BME280;6377;42.836;23.998;2024-01-07T08:14:18;93803.34;;;10.98;100.00
12624;BME280;6377;42.836;23.998;2024-01-07T08:16:46;93764.09;;;10.95;100.00
12624;BME280;6377;42.836;23.998;2024-01-07T08:19:13;93787.94;;;11.07;100.00
12624;BME280;6377;42.836;23.998;2024-01-07T08:21:40;93777.81;;;11.04;100.00
12624;BME280;6377;42.836;23.998;2024-01-07T08:24:07;93753.19;;;10.80;100.00
12624;BME280;6377;42.836;23.998;2024-01-07T08:26:37;93756.25;;;10.65;100.00
12624;BME280;6377;42.836;23.998;2024-01-07T08:29:04;93752.91;;;10.70;100.00
12624;BME280;6377;42.836;23.998;2024-01-07T08:31:31;93794.00;;;10.96;100.00
12624;BME280;6377;42.836;23.998;2024-01-07T08:33:59;93785.44;;;11.12;100.00
12624;BME280;6377;42.836;23.998;2024-01-07T08:36:26;93754.59;;;10.94;100.00
12624;BME280;6377;42.836;23.998;2024-01-07T08:38:53;93766.44;;;11.03;100.00
12624;BME280;6377;42.836;23.998;2024-01-07T08:41:21;93740.66;;;10.99;100.00
12624;BME280;6377;42.836;23.998;2024-01-07T08:43:49;93744.69;;;11.13;100.00
12624;BME280;6377;42.836;23.998;2024-01-07T08:46:16;93732.66;;;11.17;100.00
12624;BME280;6377;42.836;23.998;2024-01-07T08:48:45;93763.16;;;11.43;100.00
12624;BME280;6377;42.836;23.998;2024-01-07T08:51:12;93730.56;;;11.31;100.00
12624;BME280;6377;42.836;23.998;2024-01-07T08:53:40;93730.25;;;11.50;100.00
12624;BME280;6377;42.836;23.998;2024-01-07T08:56:07;93728.16;;;11.64;100.00
12624;BME280;6377;42.836;23.998;2024-01-07T08:58:34;93733.81;;;11.67;100.00
12624;BME280;6377;42.836;23.998;2024-01-07T09:01:04;93733.00;;;11.78;100.00
12624;BME280;6377;42.836;23.998;2024-01-07T09:03:31;93721.69;;;11.83;100.00
12624;BME280;6377;42.836;23.998;2024-01-07T09:05:58;93735.19;;;11.82;100.00
12624;BME280;6377;42.836;23.998;2024-01-07T09:08:26;93699.38;;;11.67;89.02
12624;BME280;6377;42.836;23.998;2024-01-07T09:35:32;93714.41;;;12.42;82.19
12624;BME280;6377;42.836;23.998;2024-01-07T09:38:01;93765.69;;;12.75;82.91
12624;BME280;6377;42.836;23.998;2024-01-07T09:40:43;93710.72;;;12.43;80.81
12624;BME280;6377;42.836;23.998;2024-01-07T09:43:12;93703.13;;;12.63;79.38
12624;BME280;6377;42.836;23.998;2024-01-07T09:45:41;93732.22;;;13.19;75.04
12624;BME280;6377;42.836;23.998;2024-01-07T09:48:09;93739.31;;;13.30;69.77
12624;BME280;6377;42.836;23.998;2024-01-07T09:50:38;93759.50;;;13.31;68.13
12624;BME280;6377;42.836;23.998;2024-01-07T09:53:07;93656.16;;;12.91;69.08
12624;BME280;6377;42.836;23.998;2024-01-07T10:08:37;93712.19;;;13.83;66.75
12624;BME280;6377;42.836;23.998;2024-01-07T10:11:05;93706.03;;;13.99;63.01
12624;BME280;6377;42.836;23.998;2024-01-07T10:13:35;93675.09;;;13.88;62.23
12624;BME280;6377;42.836;23.998;2024-01-07T10:16:03;93693.34;;;14.07;61.73
12624;BME280;6377;42.836;23.998;2024-01-07T10:18:30;93758.53;;;14.74;61.44
12624;BME280;6377;42.836;23.998;2024-01-07T10:21:02;93695.94;;;14.67;58.02
12624;BME280;6377;42.836;23.998;2024-01-07T10:23:31;93746.72;;;14.92;55.47
12624;BME280;6377;42.836;23.998;2024-01-07T10:26:00;93745.84;;;14.81;55.76
12624;BME280;6377;42.836;23.998;2024-01-07T10:31:03;93719.75;;;14.56;55.81
12624;BME280;6377;42.836;23.998;2024-01-07T10:33:31;93644.34;;;14.19;54.10
12624;BME280;6377;42.836;23.998;2024-01-07T10:52:27;93695.47;;;15.38;51.02
12624;BME280;6377;42.836;23.998;2024-01-07T10:55:04;93723.94;;;15.64;51.06
12624;BME280;6377;42.836;23.998;2024-01-07T10:57:44;93709.88;;;15.74;49.14
12624;BME280;6377;42.836;23.998;2024-01-07T11:00:29;93666.94;;;15.34;49.91
12624;BME280;6377;42.836;23.998;2024-01-07T11:06:24;93679.69;;;15.58;49.75
12624;BME280;6377;42.836;23.998;2024-01-07T11:30:20;93700.97;;;13.76;55.38
12624;BME280;6377;42.836;23.998;2024-01-07T12:53:37;93720.16;;;13.62;53.61
12624;BME280;6377;42.836;23.998;2024-01-07T12:56:07;93730.97;;;13.77;53.90
12624;BME280;6377;42.836;23.998;2024-01-07T12:58:36;93691.09;;;13.55;52.82
12624;BME280;6377;42.836;23.998;2024-01-07T13:01:04;93605.63;;;12.86;52.77
12624;BME280;6377;42.836;23.998;2024-01-07T13:03:32;93700.25;;;13.47;53.59
12624;BME280;6377;42.836;23.998;2024-01-07T13:06:00;93624.88;;;12.93;54.08
12624;BME280;6377;42.836;23.998;2024-01-07T13:08:28;93681.78;;;13.36;53.80
12624;BME280;6377;42.836;23.998;2024-01-07T13:10:57;93710.13;;;13.47;54.90
12624;BME280;6377;42.836;23.998;2024-01-07T13:13:26;93670.78;;;13.11;53.83
12624;BME280;6377;42.836;23.998;2024-01-07T13:45:47;93733.75;;;13.15;57.55
12624;BME280;6377;42.836;23.998;2024-01-07T16:11:30;93805.72;;;9.68;100.00
12624;BME280;6377;42.836;23.998;2024-01-07T16:34:54;93889.22;;;9.62;100.00
